Time;durP1;ratioP1;P1;durP2;ratioP2;P2;SDS_P1;SDS_P2;PMS_P1;PMS_P2;Temp;Humidity;BMP_temperature;BMP_pressure;BME280_temperature;BME280_humidity;BME280_pressure;Samples;Min_cycle;Max_cycle;Signal;HPM_P1;HPM_P2
2022/03/19 00:03:28;;;;;;;31.35;18.37;;;;;;;6.84;45.39;102099.56;7709466;32;39250;-76
2022/03/19 00:07:44;;;;;;;33.03;18.70;;;;;;;6.68;45.56;102094.41;7709387;32;39914;-76
2022/03/19 00:12:00;;;;;;;39.58;22.55;;;;;;;6.74;45.69;102099.91;7709101;32;38779;-76
2022/03/19 00:16:16;;;;;;;35.65;20.35;;;;;;;6.20;49.25;102103.75;7709751;32;37090;-76
2022/03/19 00:20:35;;;;;;;36.20;19.85;;;;;;;6.48;48.13;102092.25;7708899;32;39508;-76
2022/03/19 00:24:51;;;;;;;36.22;20.52;;;;;;;6.42;48.46;102095.72;7709363;32;40020;-76
2022/03/19 00:29:07;;;;;;;34.75;20.95;;;;;;;6.58;48.08;102094.69;7708955;32;38807;-76
2022/03/19 00:33:24;;;;;;;38.10;20.35;;;;;;;6.51;48.25;102082.91;7708825;32;37961;-76
2022/03/19 00:37:48;;;;;;;35.13;20.52;;;;;;;6.43;49.07;102080.31;7708990;32;40137;-76
2022/03/19 00:42:04;;;;;;;38.38;20.60;;;;;;;6.63;47.95;102075.97;7708009;32;39693;-76
2022/03/19 00:46:20;;;;;;;36.15;20.67;;;;;;;6.73;47.27;102073.81;7709056;32;38019;-76
2022/03/19 00:50:36;;;;;;;33.22;19.62;;;;;;;6.76;47.11;102054.47;7708886;32;37440;-76
2022/03/19 00:54:52;;;;;;;29.90;18.95;;;;;;;6.84;46.92;102066.22;7709966;32;39303;-76
2022/03/19 00:59:08;;;;;;;31.02;18.00;;;;;;;6.89;46.80;102058.34;7711801;32;40144;-76
2022/03/19 01:03:24;;;;;;;31.00;17.33;;;;;;;6.59;47.62;102053.00;7712711;32;37951;-76
2022/03/19 01:07:51;;;;;;;25.52;15.82;;;;;;;6.37;47.62;102049.38;7711797;32;36931;-76
2022/03/19 01:12:07;;;;;;;28.10;15.93;;;;;;;6.50;46.74;102038.72;7696800;32;39996;-76
2022/03/19 01:16:26;;;;;;;28.23;15.68;;;;;;;6.89;45.60;102036.66;7709072;32;39842;-76
2022/03/19 01:20:42;;;;;;;26.35;15.35;;;;;;;6.94;44.90;102034.19;7708647;32;38889;-76
2022/03/19 01:25:04;;;;;;;27.40;16.60;;;;;;;7.16;44.15;102032.34;7710107;32;37918;-76
2022/03/19 01:29:20;;;;;;;28.40;16.60;;;;;;;6.80;44.38;102026.97;7712320;32;40457;-76
2022/03/19 01:33:37;;;;;;;30.90;16.87;;;;;;;6.87;43.86;102027.88;7712490;32;39896;-76
2022/03/19 01:37:53;;;;;;;28.62;17.30;;;;;;;7.01;43.46;102018.00;7712409;32;38582;-76
2022/03/19 01:42:09;;;;;;;30.70;18.10;;;;;;;6.82;43.72;102006.75;7712303;32;37758;-75
2022/03/19 01:46:25;;;;;;;29.45;17.25;;;;;;;6.65;44.18;102008.84;7712377;32;39115;-76
2022/03/19 01:50:41;;;;;;;32.80;16.90;;;;;;;6.45;45.27;102010.50;7711912;32;39984;-76
2022/03/19 01:54:59;;;;;;;30.52;16.17;;;;;;;6.56;44.89;102000.00;7711971;32;37999;-75
2022/03/19 01:59:16;;;;;;;31.40;17.50;;;;;;;6.76;44.23;102002.94;7698319;32;37926;-76
2022/03/19 02:03:32;;;;;;;30.85;17.65;;;;;;;6.37;44.95;101995.19;7711921;32;39305;-75
2022/03/19 02:07:49;;;;;;;26.92;16.10;;;;;;;5.93;45.98;102007.75;7710879;32;39885;-76
2022/03/19 02:12:06;;;;;;;28.50;16.90;;;;;;;5.91;45.94;102007.06;7711491;32;38003;-76
2022/03/19 02:16:22;;;;;;;30.90;17.87;;;;;;;5.97;45.66;102000.94;7711599;32;37397;-76
2022/03/19 02:20:39;;;;;;;35.00;17.37;;;;;;;5.92;46.10;102006.03;7711880;32;40049;-75
2022/03/19 02:29:30;;;;;;;32.83;17.30;;;;;;;6.19;45.37;101992.87;7711383;32;37976;-76
2022/03/19 02:33:46;;;;;;;27.80;17.23;;;;;;;6.11;45.40;101996.53;7711549;32;37130;-75
2022/03/19 02:38:02;;;;;;;33.38;18.00;;;;;;;5.93;45.73;101994.19;7710858;32;39283;-76
2022/03/19 02:42:20;;;;;;;40.97;19.35;;;;;;;5.82;45.77;101981.94;7711519;32;40575;-75
2022/03/19 02:46:38;;;;;;;30.37;18.08;;;;;;;5.45;47.01;101985.56;7711404;32;38020;-76
2022/03/19 02:50:57;;;;;;;33.65;18.55;;;;;;;5.54;46.52;101989.87;7718394;32;37258;-75
2022/03/19 02:55:13;;;;;;;33.47;18.48;;;;;;;5.61;45.61;101985.41;7736758;32;39810;-75
2022/03/19 02:59:31;;;;;;;31.02;18.17;;;;;;;5.88;44.50;101980.38;7738210;32;39655;-75
2022/03/19 03:03:48;;;;;;;34.05;20.55;;;;;;;5.86;44.62;101977.00;7738146;32;37849;-76
2022/03/19 03:08:04;;;;;;;35.33;18.85;;;;;;;5.36;46.68;101981.25;7712832;32;37191;-76
2022/03/19 03:12:20;;;;;;;38.33;20.65;;;;;;;5.70;45.11;101979.91;7711228;32;39394;-76
2022/03/19 03:16:37;;;;;;;39.22;20.42;;;;;;;5.71;45.20;101978.84;7710899;32;40826;-75
2022/03/19 03:20:53;;;;;;;37.25;20.08;;;;;;;5.74;45.83;101973.09;7711089;32;38670;-75
2022/03/19 03:25:10;;;;;;;34.58;19.05;;;;;;;5.52;46.44;101975.69;7711114;32;36987;-75
2022/03/19 03:29:26;;;;;;;38.40;21.62;;;;;;;5.52;47.15;101983.81;7710921;32;39321;-75
2022/03/19 03:33:42;;;;;;;36.38;20.67;;;;;;;5.47;47.17;101978.13;7710911;32;41127;-75
2022/03/19 03:37:59;;;;;;;40.30;21.85;;;;;;;5.22;47.94;101972.91;7735202;32;38705;-76
2022/03/19 03:42:16;;;;;;;38.28;22.13;;;;;;;5.38;47.78;101971.09;7737618;32;37119;-76
2022/03/19 03:46:32;;;;;;;39.78;20.10;;;;;;;5.19;48.70;101965.19;7711276;32;40017;-75
2022/03/19 03:50:51;;;;;;;40.55;22.27;;;;;;;4.96;49.31;101965.19;7710377;32;39977;-76
2022/03/19 03:55:08;;;;;;;38.30;21.55;;;;;;;5.01;50.87;101962.78;7696803;32;37712;-75
2022/03/19 03:59:24;;;;;;;38.28;21.27;;;;;;;5.09;49.44;101964.59;7710484;32;37206;-76
2022/03/19 04:03:40;;;;;;;38.75;22.42;;;;;;;4.87;49.41;101977.09;7710396;32;39271;-76
2022/03/19 04:07:56;;;;;;;36.60;21.58;;;;;;;5.04;49.42;101962.44;7709983;32;39878;-76
2022/03/19 04:12:14;;;;;;;35.85;20.98;;;;;;;4.79;49.88;101966.34;7710092;32;38697;-75
2022/03/19 04:16:31;;;;;;;40.33;20.92;;;;;;;4.84;50.54;101977.47;7710233;32;36163;-75
2022/03/19 04:20:47;;;;;;;39.65;20.60;;;;;;;4.74;49.98;101974.16;7709955;32;39419;-76
2022/03/19 04:25:08;;;;;;;40.67;21.70;;;;;;;4.53;50.15;101972.94;7709763;32;40046;-75
2022/03/19 04:29:24;;;;;;;38.97;20.88;;;;;;;4.31;50.12;101966.47;7710474;32;38119;-75
2022/03/19 04:33:40;;;;;;;35.63;19.48;;;;;;;4.75;49.17;101973.16;7712939;32;37176;-75
2022/03/19 04:38:02;;;;;;;38.25;20.75;;;;;;;4.67;49.37;101974.03;7712744;32;39362;-75
2022/03/19 04:42:18;;;;;;;38.53;21.55;;;;;;;4.61;49.35;101969.34;7699846;32;40846;-75
2022/03/19 04:46:35;;;;;;;39.90;21.60;;;;;;;4.32;50.40;101966.31;7712546;32;38145;-75
2022/03/19 04:50:51;;;;;;;41.35;21.75;;;;;;;4.38;50.40;101964.78;7719371;32;37286;-75
2022/03/19 04:55:09;;;;;;;34.47;20.60;;;;;;;4.53;50.29;101974.81;7739662;32;39300;-75
2022/03/19 04:59:25;;;;;;;35.67;20.60;;;;;;;4.49;50.52;101979.72;7739399;32;40041;-75
2022/03/19 05:03:41;;;;;;;38.33;21.70;;;;;;;4.44;50.90;101976.72;7739185;32;38024;-75
2022/03/19 05:07:57;;;;;;;39.70;21.45;;;;;;;4.50;51.03;101973.28;7699653;32;37665;-75
2022/03/19 05:12:29;;;;;;;39.55;21.30;;;;;;;4.41;50.88;101977.06;7712569;32;39329;-75
2022/03/19 05:16:45;;;;;;;38.03;21.08;;;;;;;4.22;50.86;101987.28;7712556;32;40021;-75
2022/03/19 05:21:01;;;;;;;42.05;21.25;;;;;;;4.42;50.66;101974.19;7711819;32;37610;-75
2022/03/19 05:25:17;;;;;;;41.03;21.98;;;;;;;4.05;50.57;101978.44;7711841;32;37949;-75
2022/03/19 05:29:35;;;;;;;36.33;21.75;;;;;;;3.92;51.12;101978.13;7711717;32;39353;-75
2022/03/19 05:38:26;;;;;;;40.60;22.40;;;;;;;3.89;54.11;101994.69;7734802;32;39201;-75
2022/03/19 05:42:43;;;;;;;41.15;21.45;;;;;;;3.95;53.64;101999.37;7737283;32;38480;-75
2022/03/19 05:46:59;;;;;;;46.55;24.60;;;;;;;4.11;52.29;101991.22;7738887;32;39908;-75
2022/03/19 05:51:15;;;;;;;46.03;24.25;;;;;;;3.90;52.59;101997.19;7738542;32;40760;-74
2022/03/19 05:55:31;;;;;;;47.90;25.08;;;;;;;3.83;53.22;101998.06;7738791;32;38726;-76
2022/03/19 05:59:47;;;;;;;46.15;25.05;;;;;;;4.08;52.78;101994.25;7738875;32;37227;-75
2022/03/19 06:04:04;;;;;;;46.10;24.95;;;;;;;4.30;52.37;101992.66;7737343;32;39287;-76
2022/03/19 06:08:20;;;;;;;42.40;23.80;;;;;;;4.18;53.48;101993.22;7738065;32;40061;-75
2022/03/19 06:12:36;;;;;;;48.22;24.08;;;;;;;4.21;53.67;101993.72;7738605;32;38772;-75
2022/03/19 06:16:52;;;;;;;48.75;24.73;;;;;;;3.97;55.19;101997.34;7738660;32;37355;-74
2022/03/19 06:21:08;;;;;;;42.20;23.35;;;;;;;4.30;54.14;101991.81;7738532;32;40231;-75
2022/03/19 06:25:24;;;;;;;46.92;23.95;;;;;;;4.44;53.45;101988.34;7738489;32;40013;-76
2022/03/19 06:29:40;;;;;;;41.78;22.92;;;;;;;4.49;53.88;101991.38;7684543;32;38050;-76
2022/03/19 06:33:56;;;;;;;38.38;21.83;;;;;;;4.08;55.21;101993.44;7685576;32;38252;-75
2022/03/19 06:38:13;;;;;;;41.00;23.55;;;;;;;4.23;54.68;101996.25;7737761;32;39170;-75
2022/03/19 06:42:29;;;;;;;42.45;22.95;;;;;;;4.44;54.38;101982.94;7737672;32;39600;-74
2022/03/19 06:46:45;;;;;;;37.67;21.15;;;;;;;4.66;53.00;101977.78;7738071;32;37731;-74
2022/03/19 06:51:01;;;;;;;41.85;22.17;;;;;;;4.85;49.39;101979.16;7736440;32;37143;-76
2022/03/19 06:55:17;;;;;;;33.70;20.12;;;;;;;5.06;49.04;101976.59;7732177;32;40275;-74
2022/03/19 06:59:33;;;;;;;45.67;21.30;;;;;;;5.77;44.82;101978.97;7711166;32;39994;-74
2022/03/19 07:03:49;;;;;;;39.03;21.30;;;;;;;6.30;43.32;101978.87;7709947;32;38113;-75
2022/03/19 07:08:08;;;;;;;38.60;21.10;;;;;;;6.40;41.99;101984.00;7725945;32;37452;-74
2022/03/19 07:12:24;;;;;;;34.00;19.27;;;;;;;6.51;41.84;101982.66;7734752;32;39461;-74
2022/03/19 07:16:42;;;;;;;36.33;19.23;;;;;;;6.60;40.94;101983.38;7734195;32;40405;-74
2022/03/19 07:20:58;;;;;;;36.70;20.92;;;;;;;6.62;40.55;101987.53;7735043;32;38847;-74
2022/03/19 07:25:14;;;;;;;37.28;18.60;;;;;;;6.75;40.68;101986.88;7736325;32;38075;-74
2022/03/19 07:29:30;;;;;;;34.65;17.87;;;;;;;7.11;46.94;101981.38;7734391;32;40185;-74
2022/03/19 07:33:47;;;;;;;33.42;19.55;;;;;;;7.39;46.01;101988.69;7734343;32;40524;-73
2022/03/19 07:38:05;;;;;;;37.53;19.40;;;;;;;7.90;39.10;101993.03;7734800;32;38859;-74
2022/03/19 07:42:21;;;;;;;34.00;18.90;;;;;;;8.20;36.79;101990.84;7736465;32;36157;-73
2022/03/19 07:46:41;;;;;;;30.58;18.62;;;;;;;7.89;37.11;102000.31;7737581;32;40011;-74
2022/03/19 07:50:58;;;;;;;34.63;18.17;;;;;;;8.05;36.71;101996.44;7737265;32;40010;-74
2022/03/19 07:55:14;;;;;;;33.58;19.02;;;;;;;7.94;37.27;102001.59;7737375;32;38785;-74
2022/03/19 07:59:30;;;;;;;31.33;18.02;;;;;;;8.09;36.49;102002.31;7737401;32;38241;-75
2022/03/19 08:03:47;;;;;;;35.10;18.45;;;;;;;8.11;36.90;102008.38;7736215;32;40371;-73
2022/03/19 08:08:06;;;;;;;34.85;17.92;;;;;;;8.14;37.01;102005.28;7737269;32;39790;-74
2022/03/19 08:12:22;;;;;;;34.08;19.00;;;;;;;8.33;37.00;102010.97;7737112;32;37949;-74
2022/03/19 08:16:38;;;;;;;33.75;17.95;;;;;;;8.48;36.42;102014.41;7736969;32;37218;-74
2022/03/19 08:20:55;;;;;;;34.22;19.37;;;;;;;8.54;36.28;102012.78;7736824;32;39349;-74
2022/03/19 08:25:11;;;;;;;36.22;18.73;;;;;;;8.12;36.79;102020.06;7736596;32;40728;-73
2022/03/19 08:29:27;;;;;;;32.35;18.15;;;;;;;8.56;36.43;102016.13;7736562;32;38683;-75
2022/03/19 08:33:44;;;;;;;30.67;17.80;;;;;;;8.83;35.10;102017.88;7736398;32;36739;-74
2022/03/19 08:42:35;;;;;;;31.00;16.90;;;;;;;8.95;34.53;102009.97;7736105;32;40835;-75
2022/03/19 08:46:52;;;;;;;28.55;16.65;;;;;;;9.14;34.30;102018.34;7731502;32;141209;-75
2022/03/19 08:55:45;;;;;;;31.05;16.00;;;;;;;9.62;33.15;102009.97;7735825;32;39154;-76
2022/03/19 09:00:02;;;;;;;23.15;14.87;;;;;;;9.75;32.11;102012.66;7735712;32;40725;-78
2022/03/19 09:04:32;;;;;;;25.05;14.82;;;;;;;10.11;32.61;102011.34;7723360;32;38927;-77
2022/03/19 09:08:49;;;;;;;26.50;14.95;;;;;;;9.51;32.50;102007.88;7735636;32;37826;-76
2022/03/19 09:13:07;;;;;;;31.45;16.25;;;;;;;10.10;31.03;102001.47;7735645;32;40173;-76
2022/03/19 09:17:23;;;;;;;28.65;15.40;;;;;;;10.13;31.32;102000.22;7738168;32;39675;-76
2022/03/19 09:21:39;;;;;;;30.55;15.05;;;;;;;9.90;31.75;102000.69;7739282;32;37992;-75
2022/03/19 09:25:55;;;;;;;28.87;15.60;;;;;;;10.25;30.73;101997.66;7739406;32;37993;-75
2022/03/19 09:30:11;;;;;;;28.25;14.50;;;;;;;9.51;31.15;101997.81;7739137;32;39451;-76
2022/03/19 09:34:28;;;;;;;24.27;15.18;;;;;;;10.49;29.77;101999.69;7739184;32;40751;-76
2022/03/19 09:38:44;;;;;;;25.40;14.23;;;;;;;10.63;28.99;101999.63;7739081;32;38041;-77
2022/03/19 09:43:00;;;;;;;27.37;14.50;;;;;;;11.16;28.81;101991.09;7739108;32;37044;-77
2022/03/19 09:47:17;;;;;;;25.80;14.93;;;;;;;11.58;28.26;101996.81;7739098;32;39371;-78
2022/03/19 09:51:34;;;;;;;27.62;15.48;;;;;;;11.56;27.63;101985.28;7737449;32;40535;-77
2022/03/19 09:55:56;;;;;;;25.33;14.98;;;;;;;11.91;26.79;101994.84;7739020;32;37690;-78
2022/03/19 10:00:13;;;;;;;22.65;13.62;;;;;;;11.79;26.82;101986.50;7739078;32;37349;-78
2022/03/19 10:04:31;;;;;;;23.42;13.77;;;;;;;12.03;26.84;101988.38;7737041;32;40160;-77
2022/03/19 10:08:58;;;;;;;24.23;12.90;;;;;;;11.84;27.08;101990.22;7736375;32;39689;-78
2022/03/19 10:13:16;;;;;;;24.50;13.50;;;;;;;11.43;26.31;101978.06;7737621;32;37950;-78
2022/03/19 10:17:39;;;;;;;23.17;12.60;;;;;;;11.37;26.70;101983.56;7737859;32;37350;-77
2022/03/19 10:22:06;;;;;;;27.62;11.77;;;;;;;11.74;26.06;101969.97;7738769;32;40220;-77
2022/03/19 10:26:30;;;;;;;23.62;12.23;;;;;;;12.21;24.25;101973.00;7725510;32;40817;-78
2022/03/19 10:30:46;;;;;;;21.62;12.32;;;;;;;11.83;24.87;101976.78;7724306;32;38743;-78
2022/03/19 10:35:03;;;;;;;22.87;12.30;;;;;;;12.88;23.80;101966.63;7738481;32;37995;-78
2022/03/19 10:39:27;;;;;;;22.77;11.48;;;;;;;13.37;22.48;101961.87;7738207;32;39329;-78
2022/03/19 10:43:47;;;;;;;24.12;12.48;;;;;;;13.40;22.66;101946.84;7738348;32;39963;-78
2022/03/19 10:48:04;;;;;;;16.83;11.27;;;;;;;14.07;22.44;101955.47;7738123;32;38109;-78
2022/03/19 10:52:25;;;;;;;20.05;11.45;;;;;;;14.37;21.32;101946.19;7738044;32;38111;-78
2022/03/19 10:56:46;;;;;;;16.40;10.15;;;;;;;14.13;21.55;101950.94;7738347;32;40006;-78
2022/03/19 11:01:02;;;;;;;23.98;12.13;;;;;;;15.21;20.67;101937.25;7738144;32;39888;-78
2022/03/19 11:05:19;;;;;;;17.50;10.98;;;;;;;15.00;20.46;101927.88;7737774;32;38771;-78
2022/03/19 11:09:38;;;;;;;17.85;11.23;;;;;;;15.77;18.95;101931.78;7737952;32;38080;-77
2022/03/19 11:13:56;;;;;;;17.73;10.88;;;;;;;16.21;19.32;101913.59;7724614;32;39191;-78
2022/03/19 11:18:12;;;;;;;19.15;11.45;;;;;;;16.37;18.25;101920.94;7712053;32;38879;-79
2022/03/19 11:22:40;;;;;;;21.60;11.90;;;;;;;16.17;18.81;101917.97;7737979;32;38116;-79
2022/03/19 11:26:58;;;;;;;18.92;11.15;;;;;;;15.28;18.68;101917.00;7724093;32;37930;-79
2022/03/19 11:31:16;;;;;;;18.60;10.95;;;;;;;16.33;18.63;101900.50;7737731;32;38594;-78
2022/03/19 11:35:38;;;;;;;18.98;11.32;;;;;;;16.78;17.89;101890.19;7737786;32;40019;-79
2022/03/19 11:40:13;;;;;;;27.70;12.00;;;;;;;16.82;17.95;101885.84;7737571;32;38849;-79
2022/03/19 11:44:49;;;;;;;19.42;10.65;;;;;;;17.23;16.88;101875.97;7737946;32;38035;-78
2022/03/19 11:49:05;;;;;;;19.45;11.98;;;;;;;16.89;18.03;101884.53;7737820;32;39501;-78
2022/03/19 11:53:24;;;;;;;21.05;11.68;;;;;;;17.41;17.04;101876.63;7737251;32;40694;-78
2022/03/19 11:57:46;;;;;;;19.12;11.07;;;;;;;17.41;16.50;101882.16;7724040;32;37970;-78
2022/03/19 12:02:02;;;;;;;22.20;11.90;;;;;;;17.73;15.81;101873.75;7737597;32;37061;-78
2022/03/19 12:06:30;;;;;;;18.33;10.70;;;;;;;17.31;16.67;101869.12;7737480;32;39203;-78
2022/03/19 12:10:58;;;;;;;16.95;10.73;;;;;;;17.90;16.25;101868.06;7737317;32;39956;-78
2022/03/19 12:15:32;;;;;;;23.85;11.05;;;;;;;18.50;16.04;101868.47;7737024;32;38072;-79
2022/03/19 12:19:54;;;;;;;18.45;11.05;;;;;;;18.32;16.03;101858.78;7737127;32;37393;-79
2022/03/19 12:24:41;;;;;;;17.73;10.85;;;;;;;18.91;15.21;101848.34;7737131;32;40148;-79
2022/03/19 12:29:03;;;;;;;19.87;11.80;;;;;;;18.82;15.15;101861.03;7726159;32;40802;-79
2022/03/19 12:33:28;;;;;;;18.48;10.30;;;;;;;17.81;15.88;101850.34;7736809;32;37715;-78
2022/03/19 12:37:53;;;;;;;17.50;10.80;;;;;;;18.51;14.71;101850.78;7736893;32;37966;-78
2022/03/19 12:42:09;;;;;;;18.35;10.80;;;;;;;18.01;14.45;101857.88;7736775;32;39840;-79
2022/03/19 12:46:28;;;;;;;18.40;10.10;;;;;;;16.62;16.74;101851.50;7736489;32;40012;-78
2022/03/19 12:50:54;;;;;;;16.42;9.90;;;;;;;17.88;14.67;101842.66;7737337;32;37022;-79
2022/03/19 12:55:20;;;;;;;20.25;11.02;;;;;;;17.01;15.55;101840.28;7739975;32;38331;-79
2022/03/19 12:59:36;;;;;;;17.67;10.40;;;;;;;16.64;16.25;101851.25;7739738;32;40153;-79
2022/03/19 13:03:57;;;;;;;15.70;10.40;;;;;;;15.66;17.00;101852.97;7739701;32;39663;-79
2022/03/19 13:08:13;;;;;;;17.90;10.35;;;;;;;15.66;16.73;101858.47;7739712;32;36879;-79
2022/03/19 13:12:29;;;;;;;18.30;11.07;;;;;;;15.16;17.37;101860.25;7739390;32;37175;-79
2022/03/19 13:16:50;;;;;;;20.40;11.15;;;;;;;15.19;17.04;101857.00;7739546;32;39393;-79
2022/03/19 13:21:09;;;;;;;19.10;10.32;;;;;;;15.15;17.65;101853.09;7739382;32;39834;-79
2022/03/19 13:25:31;;;;;;;19.27;9.88;;;;;;;15.61;16.93;101852.91;7729327;32;37072;-78
2022/03/19 13:29:47;;;;;;;16.77;9.80;;;;;;;16.61;15.91;101843.50;7731347;32;37302;-77
2022/03/19 13:34:04;;;;;;;15.02;9.07;;;;;;;16.71;15.55;101840.84;7738805;32;40052;-78
2022/03/19 13:38:21;;;;;;;20.92;9.88;;;;;;;16.67;15.75;101834.22;7739113;32;39878;-77
2022/03/19 13:42:42;;;;;;;16.85;9.65;;;;;;;17.02;15.00;101830.94;7738942;32;38788;-77
2022/03/19 13:47:14;;;;;;;20.80;9.95;;;;;;;17.38;14.70;101824.78;7739186;32;37153;-77
2022/03/19 13:51:47;;;;;;;18.42;9.07;;;;;;;16.91;14.96;101833.87;7738808;32;40148;-78
2022/03/19 13:56:04;;;;;;;14.73;8.53;;;;;;;17.62;14.71;101822.41;7739173;32;39779;-78
2022/03/19 14:00:23;;;;;;;12.40;8.30;;;;;;;17.94;14.01;101827.78;7725386;32;38117;-78
2022/03/19 14:04:39;;;;;;;13.95;8.10;;;;;;;17.74;14.04;101822.19;7737842;32;37230;-78
2022/03/19 14:08:58;;;;;;;14.65;8.98;;;;;;;18.26;13.30;101821.22;7724507;32;39514;-79
2022/03/19 14:13:18;;;;;;;15.65;8.75;;;;;;;18.93;12.97;101816.53;7698735;32;40811;-80
2022/03/19 14:17:45;;;;;;;16.48;8.35;;;;;;;18.51;12.53;101828.69;7712129;32;38595;-79
2022/03/19 14:22:01;;;;;;;14.60;7.70;;;;;;;18.01;13.20;101820.06;7711995;32;36974;-79
2022/03/19 14:26:17;;;;;;;14.95;8.10;;;;;;;18.89;11.60;101823.72;7711960;32;40065;-79
2022/03/19 14:30:34;;;;;;;13.38;7.57;;;;;;;18.57;12.24;101815.72;7711892;32;39997;-78
2022/03/19 14:34:50;;;;;;;15.07;8.10;;;;;;;18.69;12.32;101818.19;7711668;32;38781;-79
2022/03/19 14:39:08;;;;;;;20.98;7.57;;;;;;;17.70;12.28;101819.13;7711800;32;37157;-79
2022/03/19 14:43:25;;;;;;;16.90;7.93;;;;;;;17.82;12.48;101822.47;7711724;32;40072;-80
2022/03/19 14:47:41;;;;;;;14.23;8.23;;;;;;;18.07;12.28;101820.91;7711708;32;40212;-80
2022/03/19 14:51:57;;;;;;;15.60;8.80;;;;;;;17.53;12.78;101819.34;7728415;32;38727;-79
2022/03/19 14:56:14;;;;;;;14.38;8.57;;;;;;;17.92;12.41;101818.97;7738455;32;37849;-79
2022/03/19 15:00:30;;;;;;;17.60;8.05;;;;;;;18.06;12.23;101822.03;7738454;32;40042;-80
2022/03/19 15:04:46;;;;;;;16.52;8.65;;;;;;;17.90;12.42;101825.84;7737974;32;40732;-80
2022/03/19 15:09:03;;;;;;;13.95;8.52;;;;;;;17.64;12.33;101815.53;7738162;32;37739;-79
2022/03/19 15:13:21;;;;;;;18.52;8.63;;;;;;;17.32;12.16;101817.59;7737782;32;38218;-80
2022/03/19 15:17:38;;;;;;;15.55;8.00;;;;;;;16.60;12.97;101822.59;7738309;32;38294;-80
2022/03/19 15:21:56;;;;;;;15.10;7.95;;;;;;;16.71;13.23;101821.56;7738251;32;39841;-80
2022/03/19 15:26:32;;;;;;;13.43;7.82;;;;;;;16.72;12.78;101814.97;7737263;32;39292;-80
2022/03/19 15:30:48;;;;;;;16.60;8.15;;;;;;;16.48;12.99;101815.31;7736629;32;37206;-80
2022/03/19 15:35:22;;;;;;;;;;;;;;;16.66;12.99;101819.63;7712373;32;39516;-80
2022/03/19 15:39:38;;;;;;;16.35;8.32;;;;;;;16.18;13.19;101817.78;7711312;32;41197;-80
2022/03/19 15:43:54;;;;;;;16.27;8.40;;;;;;;15.76;13.50;101827.53;7711000;32;38650;-79
2022/03/19 15:48:10;;;;;;;16.50;9.23;;;;;;;15.87;13.63;101825.75;7710958;32;38009;-77
2022/03/19 15:52:27;;;;;;;15.35;8.48;;;;;;;15.82;13.98;101839.44;7710545;32;39351;-79
2022/03/19 15:56:43;;;;;;;16.00;8.80;;;;;;;15.39;14.11;101826.22;7710567;32;40994;-79
2022/03/19 16:00:59;;;;;;;14.80;8.75;;;;;;;15.60;13.68;101829.22;7710690;32;37762;-79
2022/03/19 16:05:15;;;;;;;14.80;7.53;;;;;;;14.96;14.24;101836.06;7710678;32;36925;-80
2022/03/19 16:09:31;;;;;;;15.75;7.82;;;;;;;14.36;14.60;101836.69;7710559;32;39925;-80
2022/03/19 16:13:47;;;;;;;12.75;7.95;;;;;;;15.31;13.54;101839.56;7696681;32;39998;-80
2022/03/19 16:18:03;;;;;;;16.12;7.32;;;;;;;15.15;13.81;101838.53;7710033;32;37955;-79
2022/03/19 16:22:20;;;;;;;13.27;7.70;;;;;;;15.74;13.04;101844.25;7710297;32;37075;-78
2022/03/19 16:26:37;;;;;;;13.88;7.50;;;;;;;15.87;12.76;101850.50;7695547;32;40086;-80
2022/03/19 16:30:53;;;;;;;14.90;7.45;;;;;;;16.74;11.92;101845.81;7709973;32;39737;-80
2022/03/19 16:35:09;;;;;;;17.65;7.80;;;;;;;17.06;11.57;101853.28;7695787;32;37811;-80
2022/03/19 16:39:25;;;;;;;30.42;15.40;;;;;;;16.99;11.62;101844.38;7709580;32;38026;-80
2022/03/19 16:43:42;;;;;;;24.80;13.40;;;;;;;15.88;12.85;101871.41;7709586;32;40230;-78
2022/03/19 16:47:58;;;;;;;18.23;9.63;;;;;;;15.83;12.71;101876.84;7709386;32;40041;-79
2022/03/19 16:52:14;;;;;;;13.55;8.13;;;;;;;15.18;12.99;101873.75;7709231;32;38830;-79
2022/03/19 16:56:30;;;;;;;21.60;11.20;;;;;;;14.26;13.73;101876.59;7709175;32;37181;-79
2022/03/19 17:00:50;;;;;;;25.45;14.18;;;;;;;14.10;13.73;101885.56;7708803;32;39117;-78
2022/03/19 17:05:07;;;;;;;34.75;17.27;;;;;;;13.68;14.23;101891.31;7695088;32;39703;-78
2022/03/19 17:09:23;;;;;;;34.95;17.83;;;;;;;12.95;14.51;101898.91;7695196;32;38759;-78
2022/03/19 17:13:40;;;;;;;21.73;11.18;;;;;;;12.59;14.98;101908.97;7708692;32;37185;-76
2022/03/19 17:17:57;;;;;;;14.68;8.10;;;;;;;12.16;15.44;101915.47;7695303;32;39288;-78
2022/03/19 17:22:14;;;;;;;14.87;8.63;;;;;;;12.60;14.70;101916.09;7706023;32;39949;-76
2022/03/19 17:26:34;;;;;;;16.30;9.07;;;;;;;12.07;15.44;101925.03;7681957;32;37840;-77
2022/03/19 17:31:04;;;;;;;18.48;9.23;;;;;;;12.20;15.04;101933.91;7691271;32;37945;-77
2022/03/19 17:35:22;;;;;;;13.50;7.62;;;;;;;11.79;15.52;101937.31;7690427;32;39366;-77
2022/03/19 17:39:38;;;;;;;15.60;9.20;;;;;;;11.80;14.97;101947.19;7712392;32;40798;-78
2022/03/19 17:43:55;;;;;;;13.10;8.20;;;;;;;11.60;15.66;101956.44;7712428;32;37899;-77
2022/03/19 17:48:11;;;;;;;14.43;8.93;;;;;;;11.11;16.28;101969.06;7712555;32;36935;-77
2022/03/19 17:52:30;;;;;;;14.13;9.23;;;;;;;11.19;15.85;101970.69;7712040;32;39923;-77
2022/03/19 17:56:46;;;;;;;15.00;8.13;;;;;;;10.92;16.41;101972.75;7712084;32;40814;-77
2022/03/19 18:01:02;;;;;;;15.73;8.00;;;;;;;10.71;16.73;101983.00;7711820;32;37864;-78
2022/03/19 18:05:22;;;;;;;17.17;8.38;;;;;;;10.75;17.27;101992.41;7711938;32;38541;-78
2022/03/19 18:09:44;;;;;;;16.65;8.00;;;;;;;10.84;17.14;101995.72;7711848;32;40122;-78
2022/03/19 18:14:01;;;;;;;49.17;24.90;;;;;;;10.48;17.81;101995.28;7711600;32;40892;-78
2022/03/19 18:18:17;;;;;;;15.77;9.32;;;;;;;10.37;17.63;101998.69;7711461;32;38534;-76
2022/03/19 18:22:33;;;;;;;18.25;11.12;;;;;;;9.92;17.80;102009.50;7711679;32;36855;-77
2022/03/19 18:26:49;;;;;;;18.90;10.40;;;;;;;9.75;18.38;102009.13;7711686;32;39579;-78
2022/03/19 18:31:05;;;;;;;20.15;10.55;;;;;;;10.00;17.85;102011.97;7711225;32;40784;-78
2022/03/19 18:35:21;;;;;;;16.30;9.85;;;;;;;9.69;18.28;102021.72;7711268;32;37829;-78
2022/03/19 18:39:37;;;;;;;18.23;9.88;;;;;;;9.95;17.97;102018.09;7711849;32;37143;-78
2022/03/19 18:43:53;;;;;;;17.73;8.70;;;;;;;10.06;17.82;102019.31;7711684;32;39287;-78
2022/03/19 18:48:09;;;;;;;16.45;9.25;;;;;;;9.89;18.16;102023.56;7709470;32;40856;-79
2022/03/19 18:52:25;;;;;;;19.85;8.88;;;;;;;9.72;18.24;102023.97;7709331;32;37829;-79
2022/03/19 18:56:41;;;;;;;20.30;9.73;;;;;;;9.51;18.41;102029.66;7695626;32;36681;-79
2022/03/19 19:00:58;;;;;;;24.85;12.15;;;;;;;9.51;18.33;102025.06;7709380;32;39300;-77
2022/03/19 19:05:15;;;;;;;21.37;10.80;;;;;;;9.33;18.40;102028.41;7706520;32;40951;-79
2022/03/19 19:09:31;;;;;;;16.27;9.02;;;;;;;8.93;18.80;102044.66;7707070;32;36735;-76
2022/03/19 19:13:47;;;;;;;19.62;10.18;;;;;;;8.89;18.90;102051.56;7709188;32;37148;-77
2022/03/19 19:18:03;;;;;;;15.45;8.40;;;;;;;9.07;18.47;102052.88;7709174;32;38893;-76
2022/03/19 19:22:19;;;;;;;16.50;8.90;;;;;;;9.28;18.35;102055.44;7709178;32;40729;-76
2022/03/19 19:26:36;;;;;;;17.33;8.45;;;;;;;8.50;19.16;102066.69;7708853;32;37846;-77
2022/03/19 19:30:53;;;;;;;16.15;8.95;;;;;;;9.09;18.59;102056.22;7706512;32;37295;-76
2022/03/19 19:35:09;;;;;;;16.90;8.18;;;;;;;9.16;18.34;102062.53;7708459;32;39602;-77
2022/03/19 19:39:27;;;;;;;17.70;8.55;;;;;;;9.13;18.42;102065.66;7708770;32;40840;-77
2022/03/19 19:43:52;;;;;;;16.12;9.00;;;;;;;8.53;19.12;102077.19;7706729;32;38397;-78
2022/03/19 19:48:08;;;;;;;15.90;8.65;;;;;;;8.74;18.97;102078.94;7708144;32;37240;-77
2022/03/19 19:52:24;;;;;;;17.33;8.73;;;;;;;8.91;18.53;102084.00;7708087;32;38959;-78
2022/03/19 20:01:15;;;;;;;14.85;8.13;;;;;;;8.68;18.71;102085.19;7703181;32;38564;-78
2022/03/19 20:05:32;;;;;;;13.93;7.90;;;;;;;8.40;18.90;102090.66;7708111;32;37139;-79
2022/03/19 20:09:49;;;;;;;14.27;8.52;;;;;;;8.50;18.88;102099.31;7707976;32;39262;-79